sensor_id;sensor_type;location;lat;lon;timestamp;pressure;altitude;pressure_sealevel;temperature;humidity
75359;BME280;64046;51.978;5.934;2022-11-02T00:00:47;101231.88;;;18.77;67.59
75359;BME280;64046;51.978;5.934;2022-11-02T00:03:16;101233.94;;;18.73;67.66
75359;BME280;64046;51.978;5.934;2022-11-02T00:05:46;101241.16;;;18.71;67.59
75359;BME280;64046;51.978;5.934;2022-11-02T00:08:15;101233.63;;;18.65;68.21
75359;BME280;64046;51.978;5.934;2022-11-02T00:10:47;101251.00;;;18.82;67.92
75359;BME280;64046;51.978;5.934;2022-11-02T00:13:19;101253.81;;;18.67;68.07
75359;BME280;64046;51.978;5.934;2022-11-02T00:15:48;101241.16;;;18.71;67.69
75359;BME280;64046;51.978;5.934;2022-11-02T00:18:17;101242.50;;;18.77;67.73
75359;BME280;64046;51.978;5.934;2022-11-02T00:20:46;101217.06;;;18.74;68.44
75359;BME280;64046;51.978;5.934;2022-11-02T00:23:16;101234.69;;;18.62;69.43
75359;BME280;64046;51.978;5.934;2022-11-02T00:25:49;101233.59;;;18.78;69.09
75359;BME280;64046;51.978;5.934;2022-11-02T00:28:20;101252.53;;;18.60;69.90
75359;BME280;64046;51.978;5.934;2022-11-02T00:30:49;101249.59;;;18.52;71.70
75359;BME280;64046;51.978;5.934;2022-11-02T00:33:18;101236.22;;;18.41;73.71
75359;BME280;64046;51.978;5.934;2022-11-02T00:35:48;101234.97;;;18.33;75.03
75359;BME280;64046;51.978;5.934;2022-11-02T00:38:17;101233.47;;;18.29;76.05
75359;BME280;64046;51.978;5.934;2022-11-02T00:40:49;101246.63;;;18.44;76.55
75359;BME280;64046;51.978;5.934;2022-11-02T00:43:18;101246.13;;;18.26;77.49
75359;BME280;64046;51.978;5.934;2022-11-02T00:45:47;101242.72;;;18.24;78.02
75359;BME280;64046;51.978;5.934;2022-11-02T00:48:16;101240.41;;;18.19;78.92
75359;BME280;64046;51.978;5.934;2022-11-02T00:50:46;101245.19;;;18.14;79.69
75359;BME280;64046;51.978;5.934;2022-11-02T00:53:16;101226.19;;;18.07;80.56
75359;BME280;64046;51.978;5.934;2022-11-02T00:55:53;101240.28;;;18.21;80.42
75359;BME280;64046;51.978;5.934;2022-11-02T00:58:22;101226.31;;;17.93;81.50
75359;BME280;64046;51.978;5.934;2022-11-02T01:00:51;101219.47;;;17.89;81.78
75359;BME280;64046;51.978;5.934;2022-11-02T01:03:21;101232.19;;;17.84;82.46
75359;BME280;64046;51.978;5.934;2022-11-02T01:05:50;101233.88;;;17.85;82.29
75359;BME280;64046;51.978;5.934;2022-11-02T01:08:19;101214.16;;;17.89;81.68
75359;BME280;64046;51.978;5.934;2022-11-02T01:10:49;101224.03;;;17.87;81.97
75359;BME280;64046;51.978;5.934;2022-11-02T01:13:20;101235.41;;;18.02;81.16
75359;BME280;64046;51.978;5.934;2022-11-02T01:15:50;101234.66;;;17.87;81.14
75359;BME280;64046;51.978;5.934;2022-11-02T01:18:20;101232.66;;;17.90;81.44
75359;BME280;64046;51.978;5.934;2022-11-02T01:20:55;101241.34;;;18.05;81.13
75359;BME280;64046;51.978;5.934;2022-11-02T01:23:24;101240.50;;;17.92;81.66
75359;BME280;64046;51.978;5.934;2022-11-02T01:25:53;101240.91;;;17.86;81.78
75359;BME280;64046;51.978;5.934;2022-11-02T01:28:25;101227.34;;;18.03;81.94
75359;BME280;64046;51.978;5.934;2022-11-02T01:30:54;101240.50;;;17.92;81.95
75359;BME280;64046;51.978;5.934;2022-11-02T01:33:24;101249.00;;;17.97;82.32
75359;BME280;64046;51.978;5.934;2022-11-02T01:35:54;101244.88;;;18.06;82.04
75359;BME280;64046;51.978;5.934;2022-11-02T01:38:24;101236.69;;;18.09;82.30
75359;BME280;64046;51.978;5.934;2022-11-02T01:40:53;101246.88;;;18.02;82.20
75359;BME280;64046;51.978;5.934;2022-11-02T01:43:26;101245.38;;;18.24;81.92
75359;BME280;64046;51.978;5.934;2022-11-02T01:45:59;101246.63;;;18.18;82.45
75359;BME280;64046;51.978;5.934;2022-11-02T01:48:31;101249.41;;;18.16;82.63
75359;BME280;64046;51.978;5.934;2022-11-02T01:51:04;101320.91;;;18.05;83.06
75359;BME280;64046;51.978;5.934;2022-11-02T01:53:36;101316.13;;;17.97;80.90
75359;BME280;64046;51.978;5.934;2022-11-02T01:56:08;101316.28;;;17.81;75.32
75359;BME280;64046;51.978;5.934;2022-11-02T01:58:42;101326.66;;;17.72;72.98
75359;BME280;64046;51.978;5.934;2022-11-02T02:01:13;101312.44;;;17.33;70.85
75359;BME280;64046;51.978;5.934;2022-11-02T02:03:42;101310.88;;;17.16;70.86
75359;BME280;64046;51.978;5.934;2022-11-02T02:06:12;101316.47;;;17.11;70.74
75359;BME280;64046;51.978;5.934;2022-11-02T02:08:45;101311.00;;;17.00;71.20
75359;BME280;64046;51.978;5.934;2022-11-02T02:11:25;101309.28;;;16.99;70.49
75359;BME280;64046;51.978;5.934;2022-11-02T02:13:59;101320.28;;;16.92;71.14
75359;BME280;64046;51.978;5.934;2022-11-02T02:16:51;101317.22;;;16.99;70.54
75359;BME280;64046;51.978;5.934;2022-11-02T02:19:36;101315.50;;;16.83;71.27
75359;BME280;64046;51.978;5.934;2022-11-02T02:25:42;101292.94;;;16.77;72.59
75359;BME280;64046;51.978;5.934;2022-11-02T02:28:27;101293.03;;;16.76;73.21
75359;BME280;64046;51.978;5.934;2022-11-02T02:31:02;101285.47;;;16.70;74.02
75359;BME280;64046;51.978;5.934;2022-11-02T02:33:42;101284.34;;;16.74;74.04
75359;BME280;64046;51.978;5.934;2022-11-02T02:36:17;101277.84;;;16.65;74.85
75359;BME280;64046;51.978;5.934;2022-11-02T02:38:56;101281.19;;;16.82;74.25
75359;BME280;64046;51.978;5.934;2022-11-02T02:41:35;101283.41;;;16.89;73.91
75359;BME280;64046;51.978;5.934;2022-11-02T02:44:12;101279.59;;;16.93;73.92
75359;BME280;64046;51.978;5.934;2022-11-02T02:46:47;101272.22;;;16.84;74.59
75359;BME280;64046;51.978;5.934;2022-11-02T02:49:22;101282.81;;;16.84;74.75
75359;BME280;64046;51.978;5.934;2022-11-02T02:51:55;101277.03;;;16.77;75.15
75359;BME280;64046;51.978;5.934;2022-11-02T02:54:30;101283.31;;;16.91;74.92
75359;BME280;64046;51.978;5.934;2022-11-02T02:57:06;101283.13;;;16.94;74.77
75359;BME280;64046;51.978;5.934;2022-11-02T02:59:41;101289.25;;;16.94;74.96
75359;BME280;64046;51.978;5.934;2022-11-02T03:02:15;101288.72;;;16.89;75.32
75359;BME280;64046;51.978;5.934;2022-11-02T03:04:46;101279.06;;;16.74;75.62
75359;BME280;64046;51.978;5.934;2022-11-02T03:07:19;101287.47;;;16.95;75.80
75359;BME280;64046;51.978;5.934;2022-11-02T03:09:59;101288.09;;;16.99;75.49
75359;BME280;64046;51.978;5.934;2022-11-02T03:12:39;101288.31;;;16.95;75.92
75359;BME280;64046;51.978;5.934;2022-11-02T03:15:24;101281.97;;;16.98;75.71
75359;BME280;64046;51.978;5.934;2022-11-02T03:18:01;101287.28;;;16.98;76.12
75359;BME280;64046;51.978;5.934;2022-11-02T03:20:43;101295.13;;;17.00;76.06
75359;BME280;64046;51.978;5.934;2022-11-02T03:23:24;101285.56;;;16.97;76.35
75359;BME280;64046;51.978;5.934;2022-11-02T03:25:59;101277.41;;;17.00;76.54
75359;BME280;64046;51.978;5.934;2022-11-02T03:28:41;101287.72;;;17.05;76.18
75359;BME280;64046;51.978;5.934;2022-11-02T03:31:20;101290.44;;;17.03;76.23
75359;BME280;64046;51.978;5.934;2022-11-02T03:33:59;101295.53;;;17.06;76.34
75359;BME280;64046;51.978;5.934;2022-11-02T03:36:32;101293.41;;;16.99;77.55
75359;BME280;64046;51.978;5.934;2022-11-02T03:39:06;101291.44;;;17.02;77.90
75359;BME280;64046;51.978;5.934;2022-11-02T03:41:40;101295.22;;;16.98;78.37
75359;BME280;64046;51.978;5.934;2022-11-02T03:44:16;101289.91;;;16.98;78.17
75359;BME280;64046;51.978;5.934;2022-11-02T03:46:55;101298.28;;;17.05;77.82
75359;BME280;64046;51.978;5.934;2022-11-02T03:49:29;101289.91;;;16.98;78.31
75359;BME280;64046;51.978;5.934;2022-11-02T03:52:02;101298.50;;;17.02;77.78
75359;BME280;64046;51.978;5.934;2022-11-02T03:54:40;101303.84;;;17.15;77.10
75359;BME280;64046;51.978;5.934;2022-11-02T03:57:16;101309.06;;;17.16;76.70
75359;BME280;64046;51.978;5.934;2022-11-02T03:59:46;101301.34;;;16.99;76.98
75359;BME280;64046;51.978;5.934;2022-11-02T04:02:18;101308.22;;;17.16;76.29
75359;BME280;64046;51.978;5.934;2022-11-02T04:04:49;101305.31;;;17.06;76.25
75359;BME280;64046;51.978;5.934;2022-11-02T04:07:24;101309.53;;;17.23;75.63
75359;BME280;64046;51.978;5.934;2022-11-02T04:09:55;101312.50;;;17.04;75.86
75359;BME280;64046;51.978;5.934;2022-11-02T04:12:24;101319.47;;;17.05;75.67
75359;BME280;64046;51.978;5.934;2022-11-02T04:15:08;101321.34;;;17.17;75.12
75359;BME280;64046;51.978;5.934;2022-11-02T04:17:40;101323.69;;;17.22;74.71
75359;BME280;64046;51.978;5.934;2022-11-02T04:20:22;101317.81;;;17.04;74.87
75359;BME280;64046;51.978;5.934;2022-11-02T04:22:51;101322.22;;;17.03;74.81
75359;BME280;64046;51.978;5.934;2022-11-02T04:25:44;101328.50;;;17.02;74.74
75359;BME280;64046;51.978;5.934;2022-11-02T04:28:14;101332.91;;;17.02;74.74
75359;BME280;64046;51.978;5.934;2022-11-02T04:30:47;101327.81;;;16.99;74.38
75359;BME280;64046;51.978;5.934;2022-11-02T04:33:21;101326.94;;;17.12;74.07
75359;BME280;64046;51.978;5.934;2022-11-02T04:36:07;101338.59;;;17.10;73.77
75359;BME280;64046;51.978;5.934;2022-11-02T04:38:38;101339.44;;;16.96;73.64
75359;BME280;64046;51.978;5.934;2022-11-02T04:41:28;101348.25;;;16.97;73.70
75359;BME280;64046;51.978;5.934;2022-11-02T04:44:15;101350.72;;;17.00;73.36
75359;BME280;64046;51.978;5.934;2022-11-02T04:46:51;101352.56;;;17.12;73.07
75359;BME280;64046;51.978;5.934;2022-11-02T04:49:27;101369.19;;;17.28;72.57
75359;BME280;64046;51.978;5.934;2022-11-02T04:51:56;101365.16;;;17.08;72.73
75359;BME280;64046;51.978;5.934;2022-11-02T04:54:27;101367.91;;;17.07;72.74
75359;BME280;64046;51.978;5.934;2022-11-02T04:57:00;101387.09;;;17.10;72.41
75359;BME280;64046;51.978;5.934;2022-11-02T04:59:31;101384.28;;;17.14;72.37
75359;BME280;64046;51.978;5.934;2022-11-02T05:02:00;101408.84;;;17.16;72.27
75359;BME280;64046;51.978;5.934;2022-11-02T05:04:32;101406.66;;;17.37;71.38
75359;BME280;64046;51.978;5.934;2022-11-02T05:07:02;101406.84;;;17.19;71.64
75359;BME280;64046;51.978;5.934;2022-11-02T05:09:35;101408.56;;;17.20;71.48
75359;BME280;64046;51.978;5.934;2022-11-02T05:12:07;101399.47;;;17.24;71.48
75359;BME280;64046;51.978;5.934;2022-11-02T05:14:37;101393.22;;;17.25;71.28
75359;BME280;64046;51.978;5.934;2022-11-02T05:17:06;101394.91;;;17.26;71.59
75359;BME280;64046;51.978;5.934;2022-11-02T05:19:39;101394.59;;;17.45;70.96
75359;BME280;64046;51.978;5.934;2022-11-02T05:22:08;101411.56;;;17.28;71.25
75359;BME280;64046;51.978;5.934;2022-11-02T05:24:38;101409.03;;;17.27;71.23
75359;BME280;64046;51.978;5.934;2022-11-02T05:27:08;101425.47;;;17.32;70.97
75359;BME280;64046;51.978;5.934;2022-11-02T05:29:38;101414.31;;;17.27;71.29
75359;BME280;64046;51.978;5.934;2022-11-02T05:32:07;101430.94;;;17.29;71.06
75359;BME280;64046;51.978;5.934;2022-11-02T05:34:40;101419.19;;;17.47;70.67
75359;BME280;64046;51.978;5.934;2022-11-02T05:37:10;101429.81;;;17.33;71.10
75359;BME280;64046;51.978;5.934;2022-11-02T05:39:39;101435.97;;;17.34;70.87
75359;BME280;64046;51.978;5.934;2022-11-02T05:42:08;101430.75;;;17.32;70.86
75359;BME280;64046;51.978;5.934;2022-11-02T05:44:37;101433.41;;;17.32;70.74
75359;BME280;64046;51.978;5.934;2022-11-02T05:47:06;101446.66;;;17.32;70.83
75359;BME280;64046;51.978;5.934;2022-11-02T05:49:35;101445.63;;;17.35;70.62
75359;BME280;64046;51.978;5.934;2022-11-02T05:52:07;101441.69;;;17.55;70.55
75359;BME280;64046;51.978;5.934;2022-11-02T05:54:36;101450.81;;;17.36;70.82
75359;BME280;64046;51.978;5.934;2022-11-02T05:57:05;101454.13;;;17.40;70.53
75359;BME280;64046;51.978;5.934;2022-11-02T05:59:34;101453.94;;;17.43;70.46
75359;BME280;64046;51.978;5.934;2022-11-02T06:02:03;101462.72;;;17.43;70.55
75359;BME280;64046;51.978;5.934;2022-11-02T06:04:32;101473.31;;;17.43;70.53
75359;BME280;64046;51.978;5.934;2022-11-02T06:07:02;101470.66;;;17.43;70.46
75359;BME280;64046;51.978;5.934;2022-11-02T06:09:33;101477.13;;;17.54;70.12
75359;BME280;64046;51.978;5.934;2022-11-02T06:12:03;101485.81;;;17.41;70.26
75359;BME280;64046;51.978;5.934;2022-11-02T06:14:32;101484.59;;;17.33;70.37
75359;BME280;64046;51.978;5.934;2022-11-02T06:17:01;101490.84;;;17.32;70.40
75359;BME280;64046;51.978;5.934;2022-11-02T06:19:30;101495.31;;;17.31;70.39
75359;BME280;64046;51.978;5.934;2022-11-02T06:21:59;101490.75;;;17.33;70.25
75359;BME280;64046;51.978;5.934;2022-11-02T06:24:28;101494.16;;;17.35;70.31
75359;BME280;64046;51.978;5.934;2022-11-02T06:27:00;101515.16;;;17.53;70.06
75359;BME280;64046;51.978;5.934;2022-11-02T06:29:29;101511.28;;;17.29;70.15
75359;BME280;64046;51.978;5.934;2022-11-02T06:31:58;101535.03;;;17.31;70.27
75359;BME280;64046;51.978;5.934;2022-11-02T06:34:30;101528.88;;;17.30;70.03
75359;BME280;64046;51.978;5.934;2022-11-02T06:36:59;101528.22;;;17.27;70.30
75359;BME280;64046;51.978;5.934;2022-11-02T06:39:28;101544.09;;;17.27;70.13
75359;BME280;64046;51.978;5.934;2022-11-02T06:42:00;101540.78;;;17.38;70.21
75359;BME280;64046;51.978;5.934;2022-11-02T06:44:29;101557.16;;;17.16;70.57
75359;BME280;64046;51.978;5.934;2022-11-02T06:46:58;101565.84;;;17.18;70.81
75359;BME280;64046;51.978;5.934;2022-11-02T06:49:27;101575.50;;;17.19;70.60
75359;BME280;64046;51.978;5.934;2022-11-02T06:51:56;101590.16;;;17.10;71.10
75359;BME280;64046;51.978;5.934;2022-11-02T06:54:26;101589.56;;;17.05;71.36
75359;BME280;64046;51.978;5.934;2022-11-02T06:56:55;101594.94;;;17.03;71.50
75359;BME280;64046;51.978;5.934;2022-11-02T06:59:26;101605.41;;;17.21;71.34
75359;BME280;64046;51.978;5.934;2022-11-02T07:01:55;101602.97;;;17.02;71.78
75359;BME280;64046;51.978;5.934;2022-11-02T07:04:24;101618.03;;;17.01;71.73
75359;BME280;64046;51.978;5.934;2022-11-02T07:06:54;101622.72;;;16.96;71.98
75359;BME280;64046;51.978;5.934;2022-11-02T07:09:23;101632.38;;;16.97;71.88
75359;BME280;64046;51.978;5.934;2022-11-02T07:11:52;101627.94;;;16.98;72.16
75359;BME280;64046;51.978;5.934;2022-11-02T07:14:21;101643.72;;;16.99;72.31
75359;BME280;64046;51.978;5.934;2022-11-02T07:16:53;101656.84;;;17.17;72.11
75359;BME280;64046;51.978;5.934;2022-11-02T07:19:22;101654.41;;;16.98;72.39
75359;BME280;64046;51.978;5.934;2022-11-02T07:21:51;101659.88;;;16.94;72.68
75359;BME280;64046;51.978;5.934;2022-11-02T07:24:20;101665.97;;;16.97;72.56
75359;BME280;64046;51.978;5.934;2022-11-02T07:26:49;101669.28;;;17.00;72.20
75359;BME280;64046;51.978;5.934;2022-11-02T07:29:19;101676.66;;;16.95;72.41
75359;BME280;64046;51.978;5.934;2022-11-02T07:31:48;101677.66;;;16.92;72.50
75359;BME280;64046;51.978;5.934;2022-11-02T07:34:19;101681.81;;;17.12;72.31
75359;BME280;64046;51.978;5.934;2022-11-02T07:36:49;101686.19;;;16.98;72.63
75359;BME280;64046;51.978;5.934;2022-11-02T07:39:19;101708.22;;;16.98;72.44
75359;BME280;64046;51.978;5.934;2022-11-02T07:41:48;101696.69;;;16.99;72.13
75359;BME280;64046;51.978;5.934;2022-11-02T07:44:17;101706.44;;;16.99;72.31
75359;BME280;64046;51.978;5.934;2022-11-02T07:46:52;101713.53;;;16.98;72.00
75359;BME280;64046;51.978;5.934;2022-11-02T07:49:24;101714.16;;;17.18;71.89
75359;BME280;64046;51.978;5.934;2022-11-02T07:51:54;101712.38;;;17.18;71.64
75359;BME280;64046;51.978;5.934;2022-11-02T07:54:24;101712.06;;;17.08;71.59
75359;BME280;64046;51.978;5.934;2022-11-02T07:56:53;101723.66;;;17.06;71.18
75359;BME280;64046;51.978;5.934;2022-11-02T07:59:22;101716.50;;;17.08;71.23
75359;BME280;64046;51.978;5.934;2022-11-02T08:01:51;101724.00;;;17.16;70.98
75359;BME280;64046;51.978;5.934;2022-11-02T08:04:20;101725.44;;;17.21;70.56
75359;BME280;64046;51.978;5.934;2022-11-02T08:06:52;101738.03;;;17.48;69.55
75359;BME280;64046;51.978;5.934;2022-11-02T08:09:21;101736.59;;;17.26;69.95
75359;BME280;64046;51.978;5.934;2022-11-02T08:11:50;101740.97;;;17.27;70.16
75359;BME280;64046;51.978;5.934;2022-11-02T08:14:20;101758.84;;;17.24;70.59
75359;BME280;64046;51.978;5.934;2022-11-02T08:16:50;101744.59;;;16.94;73.23
75359;BME280;64046;51.978;5.934;2022-11-02T08:19:19;101750.06;;;16.75;74.14
75359;BME280;64046;51.978;5.934;2022-11-02T08:21:48;101753.38;;;16.79;74.93
75359;BME280;64046;51.978;5.934;2022-11-02T08:24:20;101747.84;;;17.00;74.59
75359;BME280;64046;51.978;5.934;2022-11-02T08:26:49;101760.75;;;16.90;74.31
75359;BME280;64046;51.978;5.934;2022-11-02T08:29:19;101763.50;;;16.88;73.93
75359;BME280;64046;51.978;5.934;2022-11-02T08:31:48;101768.78;;;16.88;74.31
75359;BME280;64046;51.978;5.934;2022-11-02T08:34:17;101767.97;;;16.86;75.17
75359;BME280;64046;51.978;5.934;2022-11-02T08:36:46;101775.16;;;16.84;75.67
75359;BME280;64046;51.978;5.934;2022-11-02T08:39:15;101769.03;;;16.84;75.20
75359;BME280;64046;51.978;5.934;2022-11-02T08:41:47;101770.16;;;16.95;75.32
75359;BME280;64046;51.978;5.934;2022-11-02T08:44:16;101775.72;;;16.91;75.15
75359;BME280;64046;51.978;5.934;2022-11-02T08:46:45;101779.03;;;16.94;74.68
75359;BME280;64046;51.978;5.934;2022-11-02T08:49:14;101787.50;;;17.01;73.95
75359;BME280;64046;51.978;5.934;2022-11-02T08:51:46;101789.13;;;17.04;73.16
75359;BME280;64046;51.978;5.934;2022-11-02T08:54:15;101800.56;;;17.04;72.87
75359;BME280;64046;51.978;5.934;2022-11-02T08:56:47;101793.19;;;17.25;72.21
75359;BME280;64046;51.978;5.934;2022-11-02T08:59:16;101797.22;;;17.17;72.05
75359;BME280;64046;51.978;5.934;2022-11-02T09:01:45;101794.75;;;17.14;71.45
75359;BME280;64046;51.978;5.934;2022-11-02T09:04:14;101797.41;;;17.14;71.50
75359;BME280;64046;51.978;5.934;2022-11-02T09:06:43;101802.63;;;17.15;71.10
75359;BME280;64046;51.978;5.934;2022-11-02T09:09:12;101797.47;;;17.12;71.24
75359;BME280;64046;51.978;5.934;2022-11-02T09:11:41;101795.16;;;17.22;70.82
75359;BME280;64046;51.978;5.934;2022-11-02T09:14:13;101800.09;;;17.44;70.03
75359;BME280;64046;51.978;5.934;2022-11-02T09:16:42;101809.25;;;17.38;70.26
75359;BME280;64046;51.978;5.934;2022-11-02T09:19:11;101797.44;;;17.44;70.01
75359;BME280;64046;51.978;5.934;2022-11-02T09:21:40;101793.59;;;17.50;69.49
75359;BME280;64046;51.978;5.934;2022-11-02T09:24:10;101798.78;;;17.51;69.34
75359;BME280;64046;51.978;5.934;2022-11-02T09:26:39;101812.78;;;17.53;69.01
75359;BME280;64046;51.978;5.934;2022-11-02T09:29:08;101816.31;;;17.54;68.80
75359;BME280;64046;51.978;5.934;2022-11-02T09:31:39;101820.97;;;17.64;68.44
75359;BME280;64046;51.978;5.934;2022-11-02T09:34:09;101824.78;;;17.44;68.76
75359;BME280;64046;51.978;5.934;2022-11-02T09:36:38;101816.66;;;17.47;68.98
75359;BME280;64046;51.978;5.934;2022-11-02T09:39:07;101821.44;;;17.57;68.53
75359;BME280;64046;51.978;5.934;2022-11-02T09:41:40;101821.97;;;17.78;67.93
75359;BME280;64046;51.978;5.934;2022-11-02T09:44:13;101828.03;;;17.80;67.71
75359;BME280;64046;51.978;5.934;2022-11-02T09:46:48;101837.88;;;17.78;67.03
75359;BME280;64046;51.978;5.934;2022-11-02T09:49:19;101841.50;;;17.77;67.53
75359;BME280;64046;51.978;5.934;2022-11-02T09:51:50;101843.59;;;17.86;66.91
75359;BME280;64046;51.978;5.934;2022-11-02T09:54:25;101857.38;;;17.93;66.02
75359;BME280;64046;51.978;5.934;2022-11-02T09:56:57;101854.00;;;17.89;65.96
75359;BME280;64046;51.978;5.934;2022-11-02T09:59:28;101866.78;;;17.83;65.91
75359;BME280;64046;51.978;5.934;2022-11-02T10:02:04;101864.44;;;18.08;65.29
75359;BME280;64046;51.978;5.934;2022-11-02T10:05:03;101872.66;;;18.18;65.30
75359;BME280;64046;51.978;5.934;2022-11-02T10:10:33;101880.38;;;18.23;64.81
75359;BME280;64046;51.978;5.934;2022-11-02T10:13:13;101881.63;;;18.31;64.51
75359;BME280;64046;51.978;5.934;2022-11-02T10:15:48;101892.34;;;18.30;64.13
75359;BME280;64046;51.978;5.934;2022-11-02T10:18:23;101891.97;;;18.36;63.67
75359;BME280;64046;51.978;5.934;2022-11-02T10:20:56;101889.00;;;18.26;63.58
75359;BME280;64046;51.978;5.934;2022-11-02T10:23:30;101891.66;;;18.26;63.40
75359;BME280;64046;51.978;5.934;2022-11-02T10:26:01;101893.63;;;18.08;63.36
75359;BME280;64046;51.978;5.934;2022-11-02T10:28:33;101899.88;;;18.22;62.83
75359;BME280;64046;51.978;5.934;2022-11-02T10:31:14;101895.63;;;18.33;62.22
75359;BME280;64046;51.978;5.934;2022-11-02T10:33:49;101890.44;;;18.32;62.45
75359;BME280;64046;51.978;5.934;2022-11-02T10:36:29;101900.41;;;18.43;62.03
75359;BME280;64046;51.978;5.934;2022-11-02T10:39:08;101905.53;;;18.46;61.81
75359;BME280;64046;51.978;5.934;2022-11-02T10:44:50;101906.56;;;18.43;61.12
75359;BME280;64046;51.978;5.934;2022-11-02T10:47:23;101900.59;;;18.40;61.35
75359;BME280;64046;51.978;5.934;2022-11-02T10:50:18;101906.03;;;18.67;60.25
75359;BME280;64046;51.978;5.934;2022-11-02T10:52:59;101906.97;;;18.66;59.51
75359;BME280;64046;51.978;5.934;2022-11-02T10:55:35;101907.72;;;18.68;59.31
75359;BME280;64046;51.978;5.934;2022-11-02T10:58:14;101917.41;;;18.69;59.15
75359;BME280;64046;51.978;5.934;2022-11-02T11:00:45;101917.19;;;18.58;59.13
75359;BME280;64046;51.978;5.934;2022-11-02T11:03:17;101919.75;;;18.45;59.14
75359;BME280;64046;51.978;5.934;2022-11-02T11:05:57;101910.84;;;18.60;59.34
75359;BME280;64046;51.978;5.934;2022-11-02T11:08:30;101919.28;;;18.53;59.35
75359;BME280;64046;51.978;5.934;2022-11-02T11:11:23;101916.56;;;18.68;58.92
75359;BME280;64046;51.978;5.934;2022-11-02T11:13:55;101923.34;;;18.58;59.99
75359;BME280;64046;51.978;5.934;2022-11-02T11:16:37;101920.06;;;18.69;59.20
75359;BME280;64046;51.978;5.934;2022-11-02T11:19:31;101917.00;;;18.75;59.53
75359;BME280;64046;51.978;5.934;2022-11-02T11:22:22;101925.75;;;18.77;59.21
75359;BME280;64046;51.978;5.934;2022-11-02T11:24:52;101930.47;;;18.58;59.97
75359;BME280;64046;51.978;5.934;2022-11-02T11:27:21;101932.69;;;18.65;60.29
75359;BME280;64046;51.978;5.934;2022-11-02T11:29:53;101929.06;;;18.81;60.00
75359;BME280;64046;51.978;5.934;2022-11-02T11:32:23;101936.72;;;18.87;59.81
75359;BME280;64046;51.978;5.934;2022-11-02T11:34:56;101935.19;;;18.97;59.62
75359;BME280;64046;51.978;5.934;2022-11-02T11:37:29;101937.94;;;18.96;59.52
75359;BME280;64046;51.978;5.934;2022-11-02T11:40:00;101932.88;;;18.91;59.74
75359;BME280;64046;51.978;5.934;2022-11-02T11:42:34;101928.94;;;18.98;59.56
75359;BME280;64046;51.978;5.934;2022-11-02T11:45:07;101934.16;;;19.00;59.24
75359;BME280;64046;51.978;5.934;2022-11-02T11:47:42;101932.03;;;18.91;59.07
75359;BME280;64046;51.978;5.934;2022-11-02T11:50:14;101926.44;;;19.10;58.92
75359;BME280;64046;51.978;5.934;2022-11-02T11:52:46;101923.50;;;19.14;58.25
75359;BME280;64046;51.978;5.934;2022-11-02T11:55:22;101925.03;;;19.18;57.01
75359;BME280;64046;51.978;5.934;2022-11-02T11:58:04;101923.09;;;19.21;56.45
75359;BME280;64046;51.978;5.934;2022-11-02T12:00:33;101915.72;;;18.97;56.63
75359;BME280;64046;51.978;5.934;2022-11-02T12:03:04;101917.13;;;19.02;56.35
75359;BME280;64046;51.978;5.934;2022-11-02T12:05:46;101925.50;;;19.11;55.98
75359;BME280;64046;51.978;5.934;2022-11-02T12:08:33;101916.28;;;19.02;54.88
75359;BME280;64046;51.978;5.934;2022-11-02T12:11:16;101911.72;;;18.90;54.66
75359;BME280;64046;51.978;5.934;2022-11-02T12:14:13;101908.03;;;18.92;54.58
75359;BME280;64046;51.978;5.934;2022-11-02T12:16:59;101907.19;;;18.92;54.37
75359;BME280;64046;51.978;5.934;2022-11-02T12:19:41;101896.47;;;18.93;54.35
75359;BME280;64046;51.978;5.934;2022-11-02T12:22:18;101906.16;;;18.94;53.92
75359;BME280;64046;51.978;5.934;2022-11-02T12:25:06;101893.06;;;19.06;53.05
75359;BME280;64046;51.978;5.934;2022-11-02T12:27:51;101905.09;;;18.97;53.00
75359;BME280;64046;51.978;5.934;2022-11-02T12:30:30;101901.13;;;18.90;53.97
75359;BME280;64046;51.978;5.934;2022-11-02T12:33:05;101903.31;;;18.97;53.76
75359;BME280;64046;51.978;5.934;2022-11-02T12:35:55;101905.66;;;19.16;52.59
75359;BME280;64046;51.978;5.934;2022-11-02T12:38:44;101899.69;;;19.13;52.77
75359;BME280;64046;51.978;5.934;2022-11-02T12:41:29;101889.72;;;19.16;52.70
75359;BME280;64046;51.978;5.934;2022-11-02T12:44:13;101897.19;;;19.10;52.21
75359;BME280;64046;51.978;5.934;2022-11-02T12:46:50;101900.06;;;19.07;51.69
75359;BME280;64046;51.978;5.934;2022-11-02T12:49:35;101894.47;;;19.11;50.87
75359;BME280;64046;51.978;5.934;2022-11-02T12:52:17;101885.75;;;18.95;51.28
75359;BME280;64046;51.978;5.934;2022-11-02T12:54:54;101877.69;;;18.96;51.45
75359;BME280;64046;51.978;5.934;2022-11-02T12:57:30;101875.22;;;19.08;50.87
75359;BME280;64046;51.978;5.934;2022-11-02T13:00:05;101872.44;;;19.09;50.95
75359;BME280;64046;51.978;5.934;2022-11-02T13:02:43;101871.47;;;19.25;50.96
75359;BME280;64046;51.978;5.934;2022-11-02T13:05:16;101877.84;;;19.22;51.19
75359;BME280;64046;51.978;5.934;2022-11-02T13:07:49;101878.41;;;19.27;50.99
75359;BME280;64046;51.978;5.934;2022-11-02T13:10:25;101879.09;;;19.16;51.53
75359;BME280;64046;51.978;5.934;2022-11-02T13:13:02;101869.13;;;19.20;51.22
75359;BME280;64046;51.978;5.934;2022-11-02T13:15:33;101877.66;;;19.11;51.05
75359;BME280;64046;51.978;5.934;2022-11-02T13:18:08;101884.41;;;19.16;50.67
75359;BME280;64046;51.978;5.934;2022-11-02T13:20:41;101883.66;;;19.14;50.47
75359;BME280;64046;51.978;5.934;2022-11-02T13:23:17;101874.22;;;19.23;49.78
75359;BME280;64046;51.978;5.934;2022-11-02T13:25:55;101872.41;;;19.24;49.61
75359;BME280;64046;51.978;5.934;2022-11-02T13:28:32;101875.06;;;19.24;49.51
75359;BME280;64046;51.978;5.934;2022-11-02T13:31:04;101870.16;;;19.17;49.80